Explorer — C6TN4 — position and weather

sailwx.info

Track history (hours):
 
Tides and Currents Weather Stations Pressure Air Temp Water Temp Dewpoint Dewpoint Depression Visibility Wind Speed Wind Dir Waves Ship Positions

Explorer

Last reported at 2015-Apr-29 06:14 UTC. Time now 2015-Sep-03 02:31 UTC.
Position N 50°52' W 001°22'.
Warning: this ship's position is months out of date.

Length 180 m; draft 7.3 m.

Type: Passenger vessel. MMSI: 311705000.

Date/timePositionNaut miles runAvg speedWind from/ knotsBaromVisibWave heightAir tempDewpointWater temp
2015-Apr-29 06:14N 50°52' W 001°22'7 9.8
2015-Apr-29 05:33N 50°46' W 001°15'1312.9
2015-Apr-29 04:33N 50°39' W 000°58'10 9.7
2015-Apr-29 03:33N 50°30' W 001°04'46 1.3
2015-Apr-27 16:29N 50°30' W 002°16'  
2015-Apr-24 23:33N 39°03' W 009°51'1312.6
2015-Apr-24 22:33N 38°50' W 009°52'1212.1
2015-Apr-24 21:33N 38°38' W 009°49'1212.4
2015-Apr-24 20:33N 38°27' W 009°45'2512.4
2015-Apr-24 18:30N 38°02' W 009°39'1312.5
2015-Apr-24 17:25N 37°48' W 009°35'  
Track history (hours):
 
Tides and Currents Weather Stations Pressure Air Temp Water Temp Dewpoint Dewpoint Depression Visibility Wind Speed Wind Dir Waves Ship Positions

Explorer

Last reported at 2015-Apr-29 06:14 UTC. Time now 2015-Sep-03 02:31 UTC.
Position N 50°52' W 001°22'.
Warning: this ship's position is months out of date.

Length 180 m; draft 7.3 m.

Type: Passenger vessel. MMSI: 311705000.

Date/timePositionNaut miles runAvg speedWind from/ knotsBaromVisibWave heightAir tempDewpointWater temp
2015-Apr-29 06:14N 50°52' W 001°22'7 9.8
2015-Apr-29 05:33N 50°46' W 001°15'1312.9
2015-Apr-29 04:33N 50°39' W 000°58'10 9.7
2015-Apr-29 03:33N 50°30' W 001°04'46 1.3
2015-Apr-27 16:29N 50°30' W 002°16'  
2015-Apr-24 23:33N 39°03' W 009°51'1312.6
2015-Apr-24 22:33N 38°50' W 009°52'1212.1
2015-Apr-24 21:33N 38°38' W 009°49'1212.4
2015-Apr-24 20:33N 38°27' W 009°45'2512.4
2015-Apr-24 18:30N 38°02' W 009°39'1312.5
2015-Apr-24 17:25N 37°48' W 009°35'  

Dump ship's entire track history